createdAt,value
2019-01-29T00:01:20.764Z,1.90
2019-01-29T00:03:50.288Z,2.00
2019-01-29T00:06:19.852Z,1.90
2019-01-29T00:08:49.357Z,2.00
2019-01-29T00:11:18.773Z,1.90
2019-01-29T00:13:48.153Z,1.90
2019-01-29T00:16:17.707Z,2.00
2019-01-29T00:18:47.209Z,2.00
2019-01-29T00:21:16.588Z,2.00
2019-01-29T00:23:46.057Z,1.90
2019-01-29T00:26:15.415Z,2.00
2019-01-29T00:28:44.804Z,2.00
2019-01-29T00:31:14.286Z,2.00
2019-01-29T00:33:43.714Z,2.00
2019-01-29T00:36:13.103Z,1.90
2019-01-29T00:38:42.492Z,1.90
2019-01-29T00:41:11.933Z,1.90
2019-01-29T00:43:41.311Z,1.90
2019-01-29T00:46:10.676Z,1.90
2019-01-29T00:48:40.120Z,1.90
2019-01-29T00:51:09.552Z,1.90
2019-01-29T00:53:39.045Z,1.90
2019-01-29T00:56:08.475Z,1.90
2019-01-29T00:58:37.903Z,1.90
2019-01-29T01:01:07.464Z,1.90
2019-01-29T01:03:36.964Z,1.90
2019-01-29T01:06:06.536Z,1.90
2019-01-29T01:08:36.039Z,1.90
2019-01-29T01:11:05.621Z,1.80
2019-01-29T01:13:35.017Z,1.80
2019-01-29T01:16:04.919Z,1.80
2019-01-29T01:18:34.354Z,1.80
2019-01-29T01:21:03.667Z,1.80
2019-01-29T01:23:32.991Z,1.80
2019-01-29T01:26:02.416Z,1.70
2019-01-29T01:28:31.805Z,1.70
2019-01-29T01:31:01.194Z,1.70
2019-01-29T01:33:30.661Z,1.70
2019-01-29T01:36:00.121Z,1.70
2019-01-29T01:38:29.525Z,1.70
2019-01-29T01:40:58.890Z,1.70
2019-01-29T01:43:28.277Z,1.70
2019-01-29T01:45:57.723Z,1.70
2019-01-29T01:48:27.101Z,1.70
2019-01-29T01:50:56.527Z,1.60
2019-01-29T01:53:25.942Z,1.60
2019-01-29T01:55:55.358Z,1.60
2019-01-29T01:58:24.800Z,1.60
2019-01-29T02:00:54.235Z,1.60
2019-01-29T02:03:23.697Z,1.60
2019-01-29T02:05:53.115Z,1.60
2019-01-29T02:08:22.439Z,1.60
2019-01-29T02:10:51.831Z,1.60
2019-01-29T02:13:21.354Z,1.60
2019-01-29T02:15:50.829Z,1.50
2019-01-29T02:18:20.189Z,1.50
2019-01-29T02:20:49.589Z,1.50
2019-01-29T02:23:19.057Z,1.40
2019-01-29T02:25:48.485Z,1.40
2019-01-29T02:28:17.919Z,1.40
2019-01-29T02:30:47.428Z,1.40
2019-01-29T02:33:16.839Z,1.40
2019-01-29T02:35:46.298Z,1.40
2019-01-29T02:38:15.831Z,1.40
2019-01-29T02:40:45.265Z,1.40
2019-01-29T02:43:14.683Z,1.40
2019-01-29T02:45:44.196Z,1.40
2019-01-29T02:48:13.641Z,1.40
2019-01-29T02:50:43.105Z,1.30
2019-01-29T02:53:18.124Z,1.30
2019-01-29T02:55:43.757Z,1.30
2019-01-29T02:58:13.152Z,1.30
2019-01-29T03:00:42.646Z,1.20
2019-01-29T03:03:12.132Z,1.20
2019-01-29T03:05:41.574Z,1.20
2019-01-29T03:08:11.019Z,1.20
2019-01-29T03:10:40.508Z,1.20
2019-01-29T03:13:09.870Z,1.20
2019-01-29T03:15:39.320Z,1.20
2019-01-29T03:18:08.810Z,1.20
2019-01-29T03:20:38.192Z,1.10
2019-01-29T03:23:07.558Z,1.20
2019-01-29T03:25:37.063Z,1.20
2019-01-29T03:28:06.541Z,1.20
2019-01-29T03:30:36.291Z,1.20
2019-01-29T03:33:05.787Z,1.10
2019-01-29T03:35:35.219Z,1.10
2019-01-29T03:38:04.684Z,1.10
2019-01-29T03:40:34.084Z,1.10
2019-01-29T03:43:03.511Z,1.10
2019-01-29T03:45:32.999Z,1.10
2019-01-29T03:48:02.399Z,1.00
2019-01-29T03:50:31.801Z,1.00
2019-01-29T03:53:01.207Z,1.00
2019-01-29T03:55:30.582Z,1.00
2019-01-29T03:58:00.096Z,1.00
2019-01-29T04:00:29.586Z,1.00
2019-01-29T04:02:59.044Z,1.10
2019-01-29T04:05:28.552Z,1.10
2019-01-29T04:07:57.921Z,1.00
2019-01-29T04:10:27.305Z,1.00
2019-01-29T04:12:56.766Z,1.00
2019-01-29T04:15:26.162Z,1.00
2019-01-29T04:17:57.866Z,1.00
2019-01-29T04:20:27.481Z,1.00
2019-01-29T04:22:56.903Z,1.00
2019-01-29T04:25:26.267Z,1.00
2019-01-29T04:27:55.611Z,1.00
2019-01-29T04:30:25.078Z,1.00
2019-01-29T04:32:54.493Z,1.00
2019-01-29T04:35:23.941Z,1.00
2019-01-29T04:37:54.376Z,1.00
2019-01-29T04:40:23.796Z,1.00
2019-01-29T04:42:53.263Z,1.00
2019-01-29T04:45:22.829Z,1.00
2019-01-29T04:47:52.258Z,0.90
2019-01-29T04:50:23.421Z,1.00
2019-01-29T04:52:52.870Z,1.00
2019-01-29T04:55:22.427Z,1.00
2019-01-29T04:57:51.813Z,1.00
2019-01-29T05:00:23.938Z,0.90
2019-01-29T05:02:53.311Z,0.90
2019-01-29T05:05:22.825Z,0.90
2019-01-29T05:07:52.328Z,0.90
2019-01-29T05:10:22.529Z,0.90
2019-01-29T05:12:51.963Z,0.90
2019-01-29T05:15:21.465Z,0.90
2019-01-29T05:17:50.962Z,0.80
2019-01-29T05:20:21.928Z,0.80
2019-01-29T05:22:51.343Z,0.80
2019-01-29T05:25:20.900Z,0.80
2019-01-29T05:27:50.260Z,0.90
2019-01-29T05:30:24.766Z,0.90
2019-01-29T05:32:54.802Z,0.90
2019-01-29T05:35:24.263Z,0.90
2019-01-29T05:37:53.730Z,0.90
2019-01-29T05:40:24.115Z,0.90
2019-01-29T05:42:53.561Z,0.90
2019-01-29T05:45:24.911Z,0.90
2019-01-29T05:47:54.260Z,0.80
2019-01-29T05:50:24.095Z,0.80
2019-01-29T05:52:53.626Z,0.80
2019-01-29T05:55:23.088Z,0.80
2019-01-29T05:57:52.540Z,0.80
2019-01-29T06:00:27.564Z,0.80
2019-01-29T06:02:57.006Z,0.80
2019-01-29T06:05:26.644Z,0.80
2019-01-29T06:07:56.095Z,0.80
2019-01-29T06:10:25.522Z,0.80
2019-01-29T06:12:54.871Z,0.80
2019-01-29T06:15:24.760Z,0.80
2019-01-29T06:17:54.117Z,0.80
2019-01-29T06:20:25.233Z,0.80
2019-01-29T06:22:54.696Z,0.80
2019-01-29T06:25:24.100Z,0.80
2019-01-29T06:27:53.873Z,0.80
2019-01-29T06:30:23.732Z,0.80
2019-01-29T06:32:53.684Z,0.80
2019-01-29T06:35:23.303Z,0.80
2019-01-29T06:37:52.862Z,0.80
2019-01-29T06:40:24.287Z,0.80
2019-01-29T06:42:53.737Z,0.80
2019-01-29T06:45:24.033Z,0.70
2019-01-29T06:47:53.785Z,0.70
2019-01-29T06:50:24.911Z,0.70
2019-01-29T06:52:54.820Z,0.70
2019-01-29T06:55:25.101Z,0.70
2019-01-29T06:57:56.044Z,0.70
2019-01-29T07:00:27.886Z,0.70
2019-01-29T07:02:58.610Z,0.70
2019-01-29T07:05:28.011Z,0.70
2019-01-29T07:07:57.403Z,0.70
2019-01-29T07:10:27.212Z,0.70
2019-01-29T07:12:57.202Z,0.70
2019-01-29T07:15:44.602Z,0.70
2019-01-29T07:18:38.821Z,0.80
2019-01-29T07:21:10.148Z,0.80
2019-01-29T07:23:39.672Z,0.80
2019-01-29T07:26:09.135Z,0.80
2019-01-29T07:28:38.624Z,0.90
2019-01-29T07:31:08.038Z,0.90
2019-01-29T07:33:37.373Z,0.90
2019-01-29T07:36:06.858Z,0.90
2019-01-29T07:38:36.324Z,1.00
2019-01-29T07:41:05.737Z,1.00
2019-01-29T07:43:35.199Z,1.00
2019-01-29T07:46:04.688Z,1.00
2019-01-29T07:48:34.097Z,1.10
2019-01-29T07:51:03.492Z,1.10
2019-01-29T07:53:32.950Z,1.10
2019-01-29T07:56:02.422Z,1.20
2019-01-29T07:58:31.890Z,1.20
2019-01-29T08:01:01.320Z,1.30
2019-01-29T08:03:30.755Z,1.30
2019-01-29T08:06:00.203Z,1.30
2019-01-29T08:08:29.624Z,1.30
2019-01-29T08:10:59.062Z,1.30
2019-01-29T08:13:28.475Z,1.30
2019-01-29T08:15:57.816Z,1.20
2019-01-29T08:18:27.196Z,1.30
2019-01-29T08:20:56.618Z,1.30
2019-01-29T08:23:26.015Z,1.30
2019-01-29T08:25:55.437Z,1.30
2019-01-29T08:28:24.863Z,1.30
2019-01-29T08:30:54.301Z,1.40
2019-01-29T08:33:23.728Z,1.40
2019-01-29T08:35:53.127Z,1.40
2019-01-29T08:38:22.636Z,1.40
2019-01-29T08:40:52.079Z,1.40
2019-01-29T08:43:21.487Z,1.40
2019-01-29T08:45:50.907Z,1.40
2019-01-29T08:48:20.400Z,1.40
2019-01-29T08:50:49.936Z,1.40
2019-01-29T08:53:19.387Z,1.50
2019-01-29T08:55:48.753Z,1.50
2019-01-29T08:58:18.112Z,1.40
2019-01-29T09:00:47.479Z,1.50
2019-01-29T09:03:17.428Z,1.50
2019-01-29T09:05:46.801Z,1.50
2019-01-29T09:08:16.280Z,1.50
2019-01-29T09:10:45.645Z,1.60
2019-01-29T09:13:15.034Z,1.60
2019-01-29T09:15:44.665Z,1.70
2019-01-29T09:18:14.131Z,1.70
2019-01-29T09:20:43.562Z,1.70
2019-01-29T09:23:12.957Z,1.70
2019-01-29T09:25:42.328Z,1.70
2019-01-29T09:28:11.765Z,1.80
2019-01-29T09:30:41.158Z,1.80
2019-01-29T09:33:10.564Z,1.90
2019-01-29T09:35:40.012Z,1.90
2019-01-29T09:38:09.400Z,2.00
2019-01-29T09:40:38.815Z,2.00
2019-01-29T09:43:08.201Z,2.00
2019-01-29T09:45:37.613Z,2.10
2019-01-29T09:48:07.110Z,2.10
2019-01-29T09:50:36.473Z,2.10
2019-01-29T09:53:06.369Z,2.20
2019-01-29T09:55:35.866Z,2.20
2019-01-29T09:58:05.529Z,2.30
2019-01-29T10:00:37.025Z,2.30
2019-01-29T10:03:06.942Z,2.30
2019-01-29T10:05:36.429Z,2.30
2019-01-29T10:08:07.019Z,2.40
2019-01-29T10:10:36.476Z,2.40
2019-01-29T10:13:06.246Z,2.50
2019-01-29T10:15:36.702Z,2.50
2019-01-29T10:18:06.483Z,2.60
2019-01-29T10:20:35.920Z,2.70
2019-01-29T10:23:05.403Z,2.80
2019-01-29T10:25:37.808Z,2.80
2019-01-29T10:28:06.000Z,2.80
2019-01-29T10:30:35.526Z,2.80
2019-01-29T10:33:05.044Z,2.80
2019-01-29T10:35:34.556Z,2.90
2019-01-29T10:38:04.059Z,2.90
2019-01-29T10:40:33.634Z,3.00
2019-01-29T10:43:03.170Z,3.00
2019-01-29T10:45:32.765Z,3.00
2019-01-29T10:48:02.262Z,3.10
2019-01-29T10:50:31.754Z,3.10
2019-01-29T10:53:01.238Z,3.10
2019-01-29T10:55:30.748Z,3.10
2019-01-29T10:58:00.781Z,3.20
2019-01-29T11:00:36.317Z,3.20
2019-01-29T11:03:07.023Z,3.20
2019-01-29T11:05:36.691Z,3.30
2019-01-29T11:08:06.900Z,3.40
2019-01-29T11:10:36.411Z,3.40
2019-01-29T11:13:07.504Z,3.40
2019-01-29T11:15:39.134Z,3.40
2019-01-29T11:18:14.275Z,3.40
2019-01-29T11:20:43.804Z,3.50
2019-01-29T11:23:13.285Z,3.50
2019-01-29T11:25:42.822Z,3.50
2019-01-29T11:28:12.505Z,3.60
2019-01-29T11:30:42.360Z,3.60
2019-01-29T11:33:11.877Z,3.60
2019-01-29T11:35:41.585Z,3.70
2019-01-29T11:38:11.071Z,3.70
2019-01-29T11:40:40.663Z,3.80
2019-01-29T11:43:10.690Z,3.80
2019-01-29T11:45:49.177Z,3.80
2019-01-29T11:48:18.629Z,3.90
2019-01-29T11:50:48.113Z,4.00
2019-01-29T11:53:17.640Z,4.00
2019-01-29T11:55:47.071Z,4.10
2019-01-29T11:58:16.542Z,4.10
2019-01-29T12:00:59.320Z,4.10
2019-01-29T12:03:28.731Z,4.20
2019-01-29T12:05:58.104Z,4.20
2019-01-29T12:08:27.627Z,4.20
2019-01-29T12:10:57.050Z,4.30
2019-01-29T12:13:27.347Z,4.30
2019-01-29T12:15:56.785Z,4.30
2019-01-29T12:18:26.794Z,4.30
2019-01-29T12:20:56.237Z,4.40
2019-01-29T12:23:25.681Z,4.40
2019-01-29T12:25:55.134Z,4.40
2019-01-29T12:28:24.627Z,4.40
2019-01-29T12:30:54.113Z,4.40
2019-01-29T12:33:23.469Z,4.50
2019-01-29T12:35:52.866Z,4.40
2019-01-29T12:38:22.308Z,4.40
2019-01-29T12:40:51.740Z,4.40
2019-01-29T12:43:21.133Z,4.40
2019-01-29T12:45:50.486Z,4.50
2019-01-29T12:48:19.924Z,4.50
2019-01-29T12:50:56.917Z,4.50
2019-01-29T12:53:32.735Z,4.60
2019-01-29T12:56:02.235Z,4.50
2019-01-29T12:58:31.679Z,4.60
2019-01-29T13:01:01.615Z,4.50
2019-01-29T13:03:31.107Z,4.60
2019-01-29T13:06:00.539Z,4.60
2019-01-29T13:08:30.031Z,4.60
2019-01-29T13:11:00.024Z,4.60
2019-01-29T13:13:29.365Z,4.60
2019-01-29T13:15:58.755Z,4.60
2019-01-29T13:18:28.255Z,4.60
2019-01-29T13:20:57.695Z,4.60
2019-01-29T13:23:27.124Z,4.60
2019-01-29T13:25:56.559Z,4.60
2019-01-29T13:28:25.994Z,4.60
2019-01-29T13:30:55.336Z,4.70
2019-01-29T13:33:24.733Z,4.70
2019-01-29T13:35:54.120Z,4.70
2019-01-29T13:38:23.483Z,4.70
2019-01-29T13:40:52.951Z,4.70
2019-01-29T13:43:22.386Z,4.70
2019-01-29T13:45:51.809Z,4.70
2019-01-29T13:48:21.278Z,4.80
2019-01-29T13:50:56.658Z,4.80
2019-01-29T13:53:26.021Z,4.80
2019-01-29T13:55:55.381Z,4.80
2019-01-29T13:58:24.749Z,4.80
2019-01-29T14:00:54.190Z,4.80
2019-01-29T14:03:23.590Z,4.80
2019-01-29T14:05:53.000Z,4.80
2019-01-29T14:08:22.369Z,4.90
2019-01-29T14:10:51.705Z,4.90
2019-01-29T14:13:21.121Z,4.90
2019-01-29T14:15:55.375Z,4.90
2019-01-29T14:18:26.935Z,4.90
2019-01-29T14:20:56.790Z,4.90
2019-01-29T14:23:26.148Z,4.90
2019-01-29T14:25:55.625Z,4.90
2019-01-29T14:28:25.033Z,4.90
2019-01-29T14:30:54.374Z,4.90
2019-01-29T14:33:23.900Z,4.90
2019-01-29T14:35:53.258Z,4.90
2019-01-29T14:39:06.122Z,4.90
2019-01-29T14:41:35.609Z,4.90
2019-01-29T14:44:11.406Z,4.90
2019-01-29T14:46:40.892Z,4.90
2019-01-29T14:49:10.292Z,4.90
2019-01-29T14:51:39.791Z,4.90
2019-01-29T14:54:09.616Z,4.90
2019-01-29T14:56:39.022Z,4.90
2019-01-29T14:59:08.389Z,4.80
2019-01-29T15:01:37.831Z,4.90
2019-01-29T15:04:07.171Z,4.80
2019-01-29T15:06:36.616Z,4.80
2019-01-29T15:09:10.112Z,4.90
2019-01-29T15:11:39.502Z,5.00
2019-01-29T15:14:08.989Z,5.00
2019-01-29T15:16:55.870Z,5.00
2019-01-29T15:19:27.056Z,5.00
2019-01-29T15:21:56.548Z,5.00
2019-01-29T15:24:25.917Z,5.10
2019-01-29T15:26:55.226Z,5.10
2019-01-29T15:29:24.602Z,5.10
2019-01-29T15:31:53.988Z,5.10
2019-01-29T15:34:23.406Z,5.10
2019-01-29T15:36:52.779Z,5.10
2019-01-29T15:39:22.247Z,5.10
2019-01-29T15:41:51.594Z,5.10
2019-01-29T15:44:21.111Z,5.10
2019-01-29T15:46:50.527Z,5.10
2019-01-29T15:49:19.993Z,5.10
2019-01-29T15:51:49.349Z,5.10
2019-01-29T15:54:18.785Z,5.10
2019-01-29T15:56:48.237Z,5.20
2019-01-29T15:59:17.669Z,5.10
2019-01-29T16:01:47.120Z,5.10
2019-01-29T16:04:16.488Z,5.10
2019-01-29T16:06:45.983Z,5.00
2019-01-29T16:09:15.445Z,5.00
2019-01-29T16:11:44.985Z,5.00
2019-01-29T16:14:14.385Z,5.00
2019-01-29T16:16:43.737Z,4.90
2019-01-29T16:19:16.246Z,4.90
2019-01-29T16:21:45.693Z,4.90
2019-01-29T16:24:15.094Z,4.80
2019-01-29T16:26:44.496Z,4.80
2019-01-29T16:29:13.822Z,4.80
2019-01-29T16:31:43.479Z,4.70
2019-01-29T16:34:12.910Z,4.70
2019-01-29T16:36:42.268Z,4.70
2019-01-29T16:39:11.650Z,4.70
2019-01-29T16:41:41.026Z,4.60
2019-01-29T16:44:10.381Z,4.60
2019-01-29T16:46:39.864Z,4.60
2019-01-29T16:49:09.192Z,4.50
2019-01-29T16:51:42.326Z,4.50
2019-01-29T16:54:09.677Z,4.50
2019-01-29T16:56:39.131Z,4.40
2019-01-29T16:59:08.618Z,4.40
2019-01-29T17:01:38.037Z,4.40
2019-01-29T17:04:07.482Z,4.30
2019-01-29T17:06:36.865Z,4.30
2019-01-29T17:09:10.138Z,4.20
2019-01-29T17:11:39.483Z,4.20
2019-01-29T17:14:08.924Z,4.20
2019-01-29T17:16:38.370Z,4.10
2019-01-29T17:19:07.762Z,4.10
2019-01-29T17:21:37.186Z,4.10
2019-01-29T17:24:06.593Z,4.10
2019-01-29T17:26:36.023Z,4.00
2019-01-29T17:29:05.907Z,4.00
2019-01-29T17:31:35.343Z,4.00
2019-01-29T17:34:04.707Z,3.90
2019-01-29T17:36:34.155Z,3.90
2019-01-29T17:39:04.705Z,3.90
2019-01-29T17:41:34.155Z,3.90
2019-01-29T17:44:06.740Z,3.90
2019-01-29T17:46:36.187Z,3.80
2019-01-29T17:49:05.628Z,3.80
2019-01-29T17:51:35.080Z,3.80
2019-01-29T17:54:05.121Z,3.80
2019-01-29T17:56:34.535Z,3.80
2019-01-29T17:59:03.913Z,3.70
2019-01-29T18:01:33.283Z,3.70
2019-01-29T18:04:02.755Z,3.70
2019-01-29T18:06:32.110Z,3.70
2019-01-29T18:09:01.812Z,3.70
2019-01-29T18:11:31.170Z,3.70
2019-01-29T18:14:00.616Z,3.70
2019-01-29T18:16:29.996Z,3.60
2019-01-29T18:18:59.442Z,3.60
2019-01-29T18:21:28.950Z,3.60
2019-01-29T18:23:58.349Z,3.60
2019-01-29T18:26:27.840Z,3.50
2019-01-29T18:28:57.270Z,3.50
2019-01-29T18:31:26.740Z,3.50
2019-01-29T18:33:56.481Z,3.50
2019-01-29T18:36:26.242Z,3.50
2019-01-29T18:38:55.608Z,3.50
2019-01-29T18:41:25.081Z,3.50
2019-01-29T18:43:54.808Z,3.50
2019-01-29T18:46:24.324Z,3.50
2019-01-29T18:48:53.825Z,3.40
2019-01-29T18:51:23.213Z,3.40
2019-01-29T18:53:52.639Z,3.40
2019-01-29T18:56:22.040Z,3.40
2019-01-29T18:58:51.506Z,3.40
2019-01-29T19:01:20.865Z,3.40
2019-01-29T19:03:50.321Z,3.30
2019-01-29T19:06:19.769Z,3.30
2019-01-29T19:08:49.229Z,3.30
2019-01-29T19:11:18.734Z,3.30
2019-01-29T19:13:48.191Z,3.30
2019-01-29T19:16:17.646Z,3.30
2019-01-29T19:18:47.119Z,3.30
2019-01-29T19:21:16.576Z,3.20
2019-01-29T19:23:47.229Z,3.20
2019-01-29T19:26:16.677Z,3.20
2019-01-29T19:28:46.096Z,3.20
2019-01-29T19:31:15.582Z,3.20
2019-01-29T19:33:45.088Z,3.20
2019-01-29T19:36:14.500Z,3.20
2019-01-29T19:38:43.879Z,3.20
2019-01-29T19:41:13.400Z,3.20
2019-01-29T19:43:42.936Z,3.20
2019-01-29T19:46:12.332Z,3.20
2019-01-29T19:48:41.804Z,3.20
2019-01-29T19:51:11.262Z,3.20
2019-01-29T19:53:40.657Z,3.20
2019-01-29T19:56:10.221Z,3.10
2019-01-29T19:58:39.608Z,3.10
2019-01-29T20:01:09.084Z,3.10
2019-01-29T20:03:38.594Z,3.10
2019-01-29T20:06:08.007Z,3.10
2019-01-29T20:08:37.433Z,3.10
2019-01-29T20:11:06.924Z,3.10
2019-01-29T20:13:36.420Z,3.10
2019-01-29T20:16:05.888Z,3.00
2019-01-29T20:18:35.340Z,3.00
2019-01-29T20:21:04.739Z,3.00
2019-01-29T20:23:34.137Z,3.00
2019-01-29T20:26:03.692Z,2.90
2019-01-29T20:28:42.026Z,2.90
2019-01-29T20:31:04.364Z,2.90
2019-01-29T20:33:33.910Z,2.90
2019-01-29T20:36:03.578Z,2.80
2019-01-29T20:38:35.249Z,2.80
2019-01-29T20:41:04.701Z,2.80
2019-01-29T20:43:34.412Z,2.80
2019-01-29T20:46:04.269Z,2.80
2019-01-29T20:48:33.829Z,2.80
2019-01-29T20:51:03.418Z,2.80
2019-01-29T20:53:32.841Z,2.70
2019-01-29T20:56:02.327Z,2.70
2019-01-29T20:58:31.813Z,2.70
2019-01-29T21:01:01.241Z,2.70
2019-01-29T21:03:30.624Z,2.70
2019-01-29T21:06:00.120Z,2.70
2019-01-29T21:08:29.486Z,2.70
2019-01-29T21:10:58.884Z,2.70
2019-01-29T21:13:28.297Z,2.70
2019-01-29T21:15:57.718Z,2.70
2019-01-29T21:18:27.189Z,2.70
2019-01-29T21:20:57.338Z,2.70
2019-01-29T21:23:26.879Z,2.70
2019-01-29T21:25:56.280Z,2.70
2019-01-29T21:28:25.752Z,2.70
2019-01-29T21:30:55.256Z,2.70
2019-01-29T21:33:24.704Z,2.70
2019-01-29T21:35:54.166Z,2.70
2019-01-29T21:38:23.574Z,2.70
2019-01-29T21:40:52.979Z,2.70
2019-01-29T21:43:22.434Z,2.70
2019-01-29T21:45:51.927Z,2.70
2019-01-29T21:48:21.361Z,2.70
2019-01-29T21:50:50.764Z,2.70
2019-01-29T21:53:20.198Z,2.60
2019-01-29T21:55:49.630Z,2.70
2019-01-29T21:58:19.105Z,2.60
2019-01-29T22:00:48.507Z,2.60
2019-01-29T22:03:17.936Z,2.60
2019-01-29T22:05:47.397Z,2.60
2019-01-29T22:08:16.764Z,2.70
2019-01-29T22:10:46.280Z,2.60
2019-01-29T22:13:15.740Z,2.60
2019-01-29T22:15:45.139Z,2.60
2019-01-29T22:18:16.229Z,2.60
2019-01-29T22:20:46.306Z,2.60
2019-01-29T22:23:15.669Z,2.60
2019-01-29T22:25:45.111Z,2.60
2019-01-29T22:28:14.629Z,2.60
2019-01-29T22:30:44.547Z,2.50
2019-01-29T22:33:14.056Z,2.60
2019-01-29T22:35:43.435Z,2.50
2019-01-29T22:38:12.835Z,2.50
2019-01-29T22:40:42.321Z,2.50
2019-01-29T22:43:11.687Z,2.50
2019-01-29T22:45:41.096Z,2.40
2019-01-29T22:48:10.740Z,2.40
2019-01-29T22:50:41.965Z,2.40
2019-01-29T22:53:11.544Z,2.40
2019-01-29T22:55:40.943Z,2.30
2019-01-29T22:58:10.699Z,2.40
2019-01-29T23:01:20.871Z,2.30
2019-01-29T23:04:28.452Z,2.40
2019-01-29T23:07:10.530Z,2.30
2019-01-29T23:09:39.966Z,2.30
2019-01-29T23:12:09.620Z,2.30
2019-01-29T23:14:39.119Z,2.20
2019-01-29T23:17:08.570Z,2.10
2019-01-29T23:19:38.024Z,2.10
2019-01-29T23:22:07.917Z,2.10
2019-01-29T23:24:37.290Z,2.20
2019-01-29T23:27:07.583Z,2.10
2019-01-29T23:29:43.153Z,2.20
2019-01-29T23:32:15.549Z,2.10
2019-01-29T23:34:45.093Z,2.10
2019-01-29T23:37:14.489Z,2.10
2019-01-29T23:39:43.906Z,2.10
2019-01-29T23:42:13.313Z,2.00
2019-01-29T23:44:42.687Z,2.10
2019-01-29T23:47:12.101Z,2.10
2019-01-29T23:49:41.587Z,2.10
2019-01-29T23:52:11.032Z,2.10
2019-01-29T23:54:40.473Z,2.10
2019-01-29T23:57:09.987Z,2.10
2019-01-29T23:59:39.338Z,2.10
